Detalii statie AGROSTAR [00001CEF]

Toti senzorii

Date Temperatura solului [C]Precipitatii [mm]Voltaj baterie [mV]HC Air temperature [C]HC Relative humidity [%]Punctul de roua [C]
medieminmaxsumaultimamedieminmaxmediemediemin
2018-10-20 16:00:00 14 14 14.3 0 7098 17.99 17.61 18.97 49.93 7.2 6.5
2018-10-20 17:00:00 14.2 14 14.4 0 6982 17.23 15.96 17.85 53.76 7.5 6.7
2018-10-20 18:00:00 14.3 14.2 14.4 0 6884 14.84 13.67 15.66 64.03 7.9 7.8
2018-10-20 19:00:00 14.3 14.2 14.4 0 6826 13.34 13.2 13.61 72.78 8.4 8.2
2018-10-20 20:00:00 14.3 14.1 14.4 0 6796 13.71 13.54 13.91 78.1 9.8 9.2
2018-10-20 21:00:00 14.3 14.2 14.4 0 6786 13.34 12.74 13.7 83.87 10.5 10.4
2018-10-20 22:00:00 14.2 14.1 14.4 0 6776 12.16 11.92 12.7 90.18 10.4 10.1
2018-10-20 23:00:00 14.1 14 14.3 0 6766 11.67 11.43 11.96 93.84 10.5 10.5
2018-10-21 00:00:00 14.1 14 14.3 0 6756 11.39 11.17 11.57 97.05 10.8 10.5
2018-10-21 01:00:00 14 13.9 14.1 0 6766 11.25 11.03 11.44 99.22 10.9 10.8
2018-10-21 02:00:00 14 13.9 14.1 0 6748 10.74 10.65 10.98 99.92 10.5 10.4
2018-10-21 03:00:00 13.9 13.7 14 0 6748 10.98 10.69 11.17 100 10.9 10.6
2018-10-21 04:00:00 13.8 13.8 13.9 2 6738 11.2 11.11 11.27 100 11.1 11.1
2018-10-21 05:00:00 13.8 13.6 13.9 0.8 6728 10.91 10.62 11.16 100 10.8 10.6
2018-10-21 06:00:00 13.7 13.7 13.8 0.8 6708 10.81 10.7 10.97 100 10.7 10.7
2018-10-21 07:00:00 13.7 13.6 13.8 0.8 6708 10.88 10.74 11.04 100 10.8 10.7
2018-10-21 08:00:00 13.5 13.4 13.7 1.4 6708 10.93 10.87 11.04 100 10.8 10.8
2018-10-21 09:00:00 13.5 13.4 13.7 3.4 6738 11.15 11 11.37 100 11.1 11
2018-10-21 10:00:00 13.5 13.5 13.6 1.6 6766 11.58 11.49 11.72 100 11.5 11.4
2018-10-21 11:00:00 13.4 13.3 13.6 0 7080 12.7 11.81 13.7 100 12.6 11.8
2018-10-21 12:00:00 13.5 13.5 13.6 0 7118 14.72 13.63 15.7 89.83 12.9 12.3
2018-10-21 13:00:00 13.6 13.4 13.9 0 7050 15.56 15.23 15.96 76.06 11.2 10.6
2018-10-21 14:00:00 13.7 13.7 13.9 0 7080 15.56 15.13 16.37 70.77 10.1 9.5
2018-10-21 15:00:00 13.9 13.7 14.1 0 7118 16.06 15.41 16.65 62.18 8.6 7.7
2018-10-21 16:00:00 14 14 14.2 0 7254 15.87 15.07 16.42 58.23 7.5 6.8
2018-10-21 17:00:00 14.1 14.1 14.3 0 7040 13.66 12.93 14.93 64.64 6.9 6.7
2018-10-21 18:00:00 14.1 14.1 14.3 0 6922 12.77 12.55 12.94 65.16 6.2 5.8
2018-10-21 19:00:00 14.1 14 14.3 0 6854 12.3 11.97 12.57 65.21 5.8 5.5
2018-10-21 20:00:00 13.9 13.9 14 0 6816 11.85 11.67 12.03 63.99 5.1 4.7
2018-10-21 21:00:00 13.8 13.8 14.1 0 6796 11.7 11.62 11.78 62.48 4.6 4.4
2018-10-21 22:00:00 13.7 13.7 13.8 0 6796 11.45 11.23 11.65 63.38 4.5 4.1
2018-10-21 23:00:00 13.5 13.4 13.7 0 6786 11.23 11.03 11.38 64.33 4.6 4.3
2018-10-22 00:00:00 13.4 13.3 13.6 0 6776 10.96 10.81 11.09 65.77 4.6 4.6
2018-10-22 01:00:00 13.3 13.2 13.4 0 6766 11.21 11.14 11.31 64.65 4.6 4.6
2018-10-22 02:00:00 13.2 13.1 13.4 0 6756 11.07 10.95 11.25 65.44 4.7 4.6
2018-10-22 03:00:00 13.1 13 13.2 0 6756 11.09 10.75 11.24 65.55 4.7 4.4
2018-10-22 04:00:00 13 12.9 13.2 0 6756 10.28 9.68 10.74 75.11 5.9 5.3
2018-10-22 05:00:00 13 12.8 13.1 0 6748 9.46 9.4 9.57 84.57 6.8 6.4
2018-10-22 06:00:00 12.8 12.8 13 0 6728 9.1 8.77 9.44 87.42 7 6.8
2018-10-22 07:00:00 12.8 12.7 12.9 0 6718 8.89 8.78 9.1 89.99 7.2 6.8
2018-10-22 08:00:00 12.7 12.6 12.8 0 6728 9.17 8.87 9.58 88.07 7.2 7
2018-10-22 09:00:00 12.7 12.6 12.8 0 6748 10.23 9.68 10.78 83.07 7.3 7
2018-10-22 10:00:00 12.6 12.6 12.7 0 6864 11.64 10.94 12.61 73.21 6.8 6.5
2018-10-22 11:00:00 12.6 12.5 12.8 0 6982 13.05 12.68 13.53 61.72 5.6 4.8
2018-10-22 12:00:00 12.7 12.6 12.8 0 7040 13.39 13.1 13.76 59.82 5.6 5.2
2018-10-22 13:00:00 12.8 12.7 13 0 7264 14.35 13.66 15.21 55.2 5.3 4.9
2018-10-22 14:00:00 12.9 12.8 13.1 0 7148 14.77 13.5 16.67 56.36 5.9 5.5
2018-10-22 15:00:00 13.1 13 13.3 0 7098 13.05 12.89 13.39 61.25 5.6 5.2